GCLP/LPA METAR and TAF weather

Enter ICAO airport designator
Station Type Date Time Source
GCLP METAR 2019/08/22 02:30 UTC NOAA

GCLP 220230Z 36023G33KT 9999 FEW020 22/17 Q1013 NOSIG


Station Type Date Time Source
GCLP Decoded METAR 2019/08/22 02:30 UTC NOAA

Station name not available
Aug 21, 2019 - 10:30 PM EDT / 2019.08.22 0230 UTC
Wind: from the N (360 degrees) at 26 MPH (23 KT) gusting to 38 MPH (33 KT):0
Visibility: greater than 7 mile(s):0
Sky conditions: mostly clear
Temperature: 71 F (22 C)
Dew Point: 62 F (17 C)
Relative Humidity: 73%
Pressure (altimeter): 29.91 in. Hg (1013 hPa)
ob: GCLP 220230Z 36023G33KT 9999 FEW020 22/17 Q1013 NOSIG
cycle: 2

Station Type Date Time Source
GCLP TAF 2019/08/22 03:30 UTC NOAA

TAF GCLP 220200Z 2203/2303 01023KT 9999 FEW025 TX30/2214Z TN22/2205Z PROB30
TEMPO 2203/2221 01023G33KT

Example: see airport list